sensor_id;sensor_type;location;lat;lon;timestamp;P1;durP1;ratioP1;P2;durP2;ratioP2
20375;SDS011;10347;51.828;6.466;2023-03-21T00:01:09;15.75;;;8.02;;
20375;SDS011;10347;51.828;6.466;2023-03-21T00:03:36;16.75;;;7.93;;
20375;SDS011;10347;51.828;6.466;2023-03-21T00:06:06;10.63;;;7.30;;
20375;SDS011;10347;51.828;6.466;2023-03-21T00:08:33;13.70;;;7.75;;
20375;SDS011;10347;51.828;6.466;2023-03-21T00:11:00;15.35;;;7.50;;
20375;SDS011;10347;51.828;6.466;2023-03-21T00:13:27;14.30;;;7.40;;
20375;SDS011;10347;51.828;6.466;2023-03-21T00:15:56;17.88;;;8.35;;
20375;SDS011;10347;51.828;6.466;2023-03-21T00:18:27;15.75;;;7.82;;
20375;SDS011;10347;51.828;6.466;2023-03-21T00:20:56;15.00;;;8.20;;
20375;SDS011;10347;51.828;6.466;2023-03-21T00:23:26;13.20;;;7.95;;
20375;SDS011;10347;51.828;6.466;2023-03-21T00:25:53;12.80;;;7.47;;
20375;SDS011;10347;51.828;6.466;2023-03-21T00:28:19;14.43;;;8.23;;
20375;SDS011;10347;51.828;6.466;2023-03-21T00:30:45;13.93;;;8.05;;
20375;SDS011;10347;51.828;6.466;2023-03-21T00:33:11;18.45;;;8.57;;
20375;SDS011;10347;51.828;6.466;2023-03-21T00:35:38;14.63;;;8.43;;
20375;SDS011;10347;51.828;6.466;2023-03-21T00:38:07;18.05;;;8.20;;
20375;SDS011;10347;51.828;6.466;2023-03-21T00:40:33;16.25;;;8.25;;
20375;SDS011;10347;51.828;6.466;2023-03-21T00:42:59;15.35;;;8.75;;
20375;SDS011;10347;51.828;6.466;2023-03-21T00:45:25;12.10;;;7.82;;
20375;SDS011;10347;51.828;6.466;2023-03-21T00:47:51;14.93;;;8.82;;
20375;SDS011;10347;51.828;6.466;2023-03-21T00:50:16;15.48;;;8.40;;
20375;SDS011;10347;51.828;6.466;2023-03-21T00:52:42;16.67;;;8.50;;
20375;SDS011;10347;51.828;6.466;2023-03-21T00:55:12;16.95;;;8.35;;
20375;SDS011;10347;51.828;6.466;2023-03-21T00:57:40;14.27;;;7.68;;
20375;SDS011;10347;51.828;6.466;2023-03-21T01:00:07;13.10;;;7.68;;
20375;SDS011;10347;51.828;6.466;2023-03-21T01:02:34;14.80;;;8.00;;
20375;SDS011;10347;51.828;6.466;2023-03-21T01:05:01;14.20;;;8.75;;
20375;SDS011;10347;51.828;6.466;2023-03-21T01:07:28;11.40;;;7.40;;
20375;SDS011;10347;51.828;6.466;2023-03-21T01:09:53;16.02;;;8.35;;
20375;SDS011;10347;51.828;6.466;2023-03-21T01:12:19;16.02;;;9.15;;
20375;SDS011;10347;51.828;6.466;2023-03-21T01:14:45;16.33;;;8.60;;
20375;SDS011;10347;51.828;6.466;2023-03-21T01:17:11;14.55;;;8.02;;
20375;SDS011;10347;51.828;6.466;2023-03-21T01:19:36;13.48;;;8.10;;
20375;SDS011;10347;51.828;6.466;2023-03-21T01:22:02;14.38;;;9.30;;
20375;SDS011;10347;51.828;6.466;2023-03-21T01:24:27;19.23;;;10.23;;
20375;SDS011;10347;51.828;6.466;2023-03-21T01:26:53;17.67;;;9.98;;
20375;SDS011;10347;51.828;6.466;2023-03-21T01:29:18;15.07;;;8.95;;
20375;SDS011;10347;51.828;6.466;2023-03-21T01:31:44;16.35;;;9.98;;
20375;SDS011;10347;51.828;6.466;2023-03-21T01:34:10;15.18;;;8.98;;
20375;SDS011;10347;51.828;6.466;2023-03-21T01:36:35;18.55;;;9.63;;
20375;SDS011;10347;51.828;6.466;2023-03-21T01:39:02;19.13;;;10.80;;
20375;SDS011;10347;51.828;6.466;2023-03-21T01:41:46;22.67;;;11.10;;
20375;SDS011;10347;51.828;6.466;2023-03-21T01:44:16;18.52;;;10.20;;
20375;SDS011;10347;51.828;6.466;2023-03-21T01:46:47;16.38;;;9.60;;
20375;SDS011;10347;51.828;6.466;2023-03-21T01:51:49;16.58;;;9.95;;
20375;SDS011;10347;51.828;6.466;2023-03-21T01:54:28;16.02;;;9.07;;
20375;SDS011;10347;51.828;6.466;2023-03-21T01:56:56;16.98;;;10.13;;
20375;SDS011;10347;51.828;6.466;2023-03-21T01:59:27;12.27;;;9.13;;
20375;SDS011;10347;51.828;6.466;2023-03-21T02:01:58;12.73;;;8.15;;
20375;SDS011;10347;51.828;6.466;2023-03-21T02:04:31;14.60;;;8.35;;
20375;SDS011;10347;51.828;6.466;2023-03-21T02:07:03;11.80;;;8.18;;
20375;SDS011;10347;51.828;6.466;2023-03-21T02:09:38;16.45;;;10.02;;
20375;SDS011;10347;51.828;6.466;2023-03-21T02:12:08;14.82;;;9.35;;
20375;SDS011;10347;51.828;6.466;2023-03-21T02:14:35;18.75;;;9.05;;
20375;SDS011;10347;51.828;6.466;2023-03-21T02:22:52;16.27;;;9.05;;
20375;SDS011;10347;51.828;6.466;2023-03-21T02:28:29;15.90;;;8.75;;
20375;SDS011;10347;51.828;6.466;2023-03-21T02:33:34;16.67;;;8.65;;
20375;SDS011;10347;51.828;6.466;2023-03-21T02:36:15;17.70;;;9.63;;
20375;SDS011;10347;51.828;6.466;2023-03-21T02:44:13;14.32;;;9.30;;
20375;SDS011;10347;51.828;6.466;2023-03-21T02:46:48;16.98;;;8.80;;
20375;SDS011;10347;51.828;6.466;2023-03-21T02:51:53;13.52;;;8.18;;
20375;SDS011;10347;51.828;6.466;2023-03-21T02:54:22;17.83;;;9.13;;
20375;SDS011;10347;51.828;6.466;2023-03-21T02:56:50;16.77;;;8.43;;
20375;SDS011;10347;51.828;6.466;2023-03-21T02:59:20;10.68;;;7.43;;
20375;SDS011;10347;51.828;6.466;2023-03-21T03:01:49;13.15;;;7.80;;
20375;SDS011;10347;51.828;6.466;2023-03-21T03:04:20;13.68;;;8.32;;
20375;SDS011;10347;51.828;6.466;2023-03-21T03:15:59;14.02;;;6.53;;
20375;SDS011;10347;51.828;6.466;2023-03-21T03:17:57;15.77;;;7.45;;
20375;SDS011;10347;51.828;6.466;2023-03-21T03:20:39;14.85;;;7.90;;
20375;SDS011;10347;51.828;6.466;2023-03-21T03:23:12;10.52;;;6.65;;
20375;SDS011;10347;51.828;6.466;2023-03-21T03:25:59;12.10;;;6.93;;
20375;SDS011;10347;51.828;6.466;2023-03-21T03:28:30;9.90;;;6.53;;
20375;SDS011;10347;51.828;6.466;2023-03-21T03:31:00;17.45;;;8.13;;
20375;SDS011;10347;51.828;6.466;2023-03-21T03:33:27;16.30;;;7.40;;
20375;SDS011;10347;51.828;6.466;2023-03-21T03:35:55;13.00;;;7.10;;
20375;SDS011;10347;51.828;6.466;2023-03-21T03:38:23;14.20;;;7.40;;
20375;SDS011;10347;51.828;6.466;2023-03-21T03:40:53;13.45;;;7.68;;
20375;SDS011;10347;51.828;6.466;2023-03-21T03:43:25;14.70;;;6.80;;
20375;SDS011;10347;51.828;6.466;2023-03-21T03:45:57;13.07;;;7.50;;
20375;SDS011;10347;51.828;6.466;2023-03-21T03:48:46;12.98;;;7.82;;
20375;SDS011;10347;51.828;6.466;2023-03-21T03:53:57;21.73;;;7.82;;
20375;SDS011;10347;51.828;6.466;2023-03-21T03:56:29;20.92;;;7.30;;
20375;SDS011;10347;51.828;6.466;2023-03-21T03:58:55;13.90;;;7.05;;
20375;SDS011;10347;51.828;6.466;2023-03-21T04:01:21;16.60;;;7.68;;
20375;SDS011;10347;51.828;6.466;2023-03-21T04:03:47;11.63;;;6.95;;
20375;SDS011;10347;51.828;6.466;2023-03-21T04:06:13;14.38;;;7.47;;
20375;SDS011;10347;51.828;6.466;2023-03-21T04:08:40;18.70;;;7.60;;
20375;SDS011;10347;51.828;6.466;2023-03-21T04:11:06;13.35;;;7.85;;
20375;SDS011;10347;51.828;6.466;2023-03-21T04:13:32;14.52;;;7.30;;
20375;SDS011;10347;51.828;6.466;2023-03-21T04:15:58;18.63;;;7.80;;
20375;SDS011;10347;51.828;6.466;2023-03-21T04:18:24;16.17;;;9.00;;
20375;SDS011;10347;51.828;6.466;2023-03-21T04:20:50;12.60;;;7.93;;
20375;SDS011;10347;51.828;6.466;2023-03-21T04:23:17;15.02;;;8.65;;
20375;SDS011;10347;51.828;6.466;2023-03-21T04:25:44;15.40;;;7.63;;
20375;SDS011;10347;51.828;6.466;2023-03-21T04:28:10;13.15;;;8.02;;
20375;SDS011;10347;51.828;6.466;2023-03-21T04:30:36;15.27;;;8.00;;
20375;SDS011;10347;51.828;6.466;2023-03-21T04:33:03;14.98;;;8.43;;
20375;SDS011;10347;51.828;6.466;2023-03-21T04:35:28;17.38;;;7.68;;
20375;SDS011;10347;51.828;6.466;2023-03-21T04:37:54;18.50;;;9.23;;
20375;SDS011;10347;51.828;6.466;2023-03-21T04:40:20;19.52;;;9.93;;
20375;SDS011;10347;51.828;6.466;2023-03-21T04:42:46;19.08;;;8.35;;
20375;SDS011;10347;51.828;6.466;2023-03-21T04:45:12;15.10;;;7.78;;
20375;SDS011;10347;51.828;6.466;2023-03-21T04:47:39;15.90;;;8.75;;
20375;SDS011;10347;51.828;6.466;2023-03-21T04:50:05;19.17;;;8.07;;
20375;SDS011;10347;51.828;6.466;2023-03-21T04:52:31;16.55;;;8.05;;
20375;SDS011;10347;51.828;6.466;2023-03-21T04:54:57;16.52;;;7.88;;
20375;SDS011;10347;51.828;6.466;2023-03-21T04:57:22;14.68;;;8.05;;
20375;SDS011;10347;51.828;6.466;2023-03-21T04:59:48;15.63;;;7.72;;
20375;SDS011;10347;51.828;6.466;2023-03-21T05:02:14;12.52;;;7.43;;
20375;SDS011;10347;51.828;6.466;2023-03-21T05:04:39;13.52;;;7.60;;
20375;SDS011;10347;51.828;6.466;2023-03-21T05:07:06;15.50;;;7.88;;
20375;SDS011;10347;51.828;6.466;2023-03-21T05:09:31;18.15;;;8.38;;
20375;SDS011;10347;51.828;6.466;2023-03-21T05:11:57;18.02;;;8.75;;
20375;SDS011;10347;51.828;6.466;2023-03-21T05:14:23;15.80;;;8.80;;
20375;SDS011;10347;51.828;6.466;2023-03-21T05:16:51;16.20;;;8.45;;
20375;SDS011;10347;51.828;6.466;2023-03-21T05:19:20;18.40;;;8.75;;
20375;SDS011;10347;51.828;6.466;2023-03-21T05:21:46;20.25;;;9.50;;
20375;SDS011;10347;51.828;6.466;2023-03-21T05:24:14;15.80;;;9.25;;
20375;SDS011;10347;51.828;6.466;2023-03-21T05:26:42;18.27;;;8.55;;
20375;SDS011;10347;51.828;6.466;2023-03-21T05:29:09;15.15;;;9.02;;
20375;SDS011;10347;51.828;6.466;2023-03-21T05:31:35;18.27;;;8.85;;
20375;SDS011;10347;51.828;6.466;2023-03-21T05:34:01;20.42;;;9.40;;
20375;SDS011;10347;51.828;6.466;2023-03-21T05:36:27;19.73;;;8.85;;
20375;SDS011;10347;51.828;6.466;2023-03-21T05:38:53;16.70;;;9.88;;
20375;SDS011;10347;51.828;6.466;2023-03-21T05:41:18;17.98;;;8.30;;
20375;SDS011;10347;51.828;6.466;2023-03-21T05:43:45;15.60;;;8.15;;
20375;SDS011;10347;51.828;6.466;2023-03-21T05:46:11;19.20;;;9.15;;
20375;SDS011;10347;51.828;6.466;2023-03-21T05:48:37;18.80;;;8.63;;
20375;SDS011;10347;51.828;6.466;2023-03-21T05:51:03;18.50;;;8.55;;
20375;SDS011;10347;51.828;6.466;2023-03-21T05:53:29;14.85;;;8.68;;
20375;SDS011;10347;51.828;6.466;2023-03-21T05:55:55;17.00;;;9.10;;
20375;SDS011;10347;51.828;6.466;2023-03-21T05:58:20;19.25;;;8.88;;
20375;SDS011;10347;51.828;6.466;2023-03-21T06:00:46;23.60;;;9.60;;
20375;SDS011;10347;51.828;6.466;2023-03-21T06:03:12;20.20;;;8.70;;
20375;SDS011;10347;51.828;6.466;2023-03-21T06:05:37;13.88;;;7.78;;
20375;SDS011;10347;51.828;6.466;2023-03-21T06:08:03;19.05;;;8.88;;
20375;SDS011;10347;51.828;6.466;2023-03-21T06:10:29;14.02;;;8.15;;
20375;SDS011;10347;51.828;6.466;2023-03-21T06:12:54;15.18;;;8.50;;
20375;SDS011;10347;51.828;6.466;2023-03-21T06:15:20;16.58;;;9.10;;
20375;SDS011;10347;51.828;6.466;2023-03-21T06:17:46;15.57;;;8.48;;
20375;SDS011;10347;51.828;6.466;2023-03-21T06:20:11;14.23;;;8.65;;
20375;SDS011;10347;51.828;6.466;2023-03-21T06:22:37;15.05;;;7.88;;
20375;SDS011;10347;51.828;6.466;2023-03-21T06:25:03;17.88;;;7.97;;
20375;SDS011;10347;51.828;6.466;2023-03-21T06:27:31;14.52;;;8.18;;
20375;SDS011;10347;51.828;6.466;2023-03-21T06:29:57;17.23;;;8.10;;
20375;SDS011;10347;51.828;6.466;2023-03-21T06:32:23;13.77;;;7.70;;
20375;SDS011;10347;51.828;6.466;2023-03-21T06:34:49;16.15;;;8.18;;
20375;SDS011;10347;51.828;6.466;2023-03-21T06:37:15;12.82;;;7.95;;
20375;SDS011;10347;51.828;6.466;2023-03-21T06:39:40;16.55;;;7.55;;
20375;SDS011;10347;51.828;6.466;2023-03-21T06:42:06;16.85;;;7.78;;
20375;SDS011;10347;51.828;6.466;2023-03-21T06:44:32;16.75;;;8.10;;
20375;SDS011;10347;51.828;6.466;2023-03-21T06:46:57;16.52;;;9.07;;
20375;SDS011;10347;51.828;6.466;2023-03-21T06:49:23;18.13;;;7.78;;
20375;SDS011;10347;51.828;6.466;2023-03-21T06:51:48;12.18;;;7.22;;
20375;SDS011;10347;51.828;6.466;2023-03-21T06:54:14;13.25;;;7.25;;
20375;SDS011;10347;51.828;6.466;2023-03-21T06:56:41;10.52;;;6.80;;
20375;SDS011;10347;51.828;6.466;2023-03-21T06:59:07;14.23;;;6.88;;
20375;SDS011;10347;51.828;6.466;2023-03-21T07:01:32;14.27;;;7.13;;
20375;SDS011;10347;51.828;6.466;2023-03-21T07:03:58;18.48;;;7.60;;
20375;SDS011;10347;51.828;6.466;2023-03-21T07:06:24;15.25;;;6.40;;
20375;SDS011;10347;51.828;6.466;2023-03-21T07:08:50;13.98;;;6.72;;
20375;SDS011;10347;51.828;6.466;2023-03-21T07:11:16;16.05;;;7.60;;
20375;SDS011;10347;51.828;6.466;2023-03-21T07:13:42;14.52;;;7.43;;
20375;SDS011;10347;51.828;6.466;2023-03-21T07:16:08;15.68;;;6.85;;
20375;SDS011;10347;51.828;6.466;2023-03-21T07:18:34;16.60;;;7.30;;
20375;SDS011;10347;51.828;6.466;2023-03-21T07:21:00;17.20;;;7.50;;
20375;SDS011;10347;51.828;6.466;2023-03-21T07:23:25;14.75;;;7.63;;
20375;SDS011;10347;51.828;6.466;2023-03-21T07:25:52;14.80;;;7.28;;
20375;SDS011;10347;51.828;6.466;2023-03-21T07:28:18;12.75;;;6.65;;
20375;SDS011;10347;51.828;6.466;2023-03-21T07:30:44;15.00;;;6.90;;
20375;SDS011;10347;51.828;6.466;2023-03-21T07:33:15;13.70;;;6.90;;
20375;SDS011;10347;51.828;6.466;2023-03-21T07:35:41;10.32;;;6.55;;
20375;SDS011;10347;51.828;6.466;2023-03-21T07:38:06;12.38;;;6.47;;
20375;SDS011;10347;51.828;6.466;2023-03-21T07:40:32;17.23;;;7.68;;
20375;SDS011;10347;51.828;6.466;2023-03-21T07:42:58;14.90;;;6.80;;
20375;SDS011;10347;51.828;6.466;2023-03-21T07:45:23;15.40;;;6.75;;
20375;SDS011;10347;51.828;6.466;2023-03-21T07:47:50;12.95;;;6.65;;
20375;SDS011;10347;51.828;6.466;2023-03-21T07:50:16;15.77;;;7.00;;
20375;SDS011;10347;51.828;6.466;2023-03-21T07:52:42;17.98;;;6.95;;
20375;SDS011;10347;51.828;6.466;2023-03-21T07:55:08;13.52;;;6.10;;
20375;SDS011;10347;51.828;6.466;2023-03-21T07:57:35;13.25;;;6.63;;
20375;SDS011;10347;51.828;6.466;2023-03-21T08:00:00;17.58;;;6.55;;
20375;SDS011;10347;51.828;6.466;2023-03-21T08:02:28;17.13;;;7.07;;
20375;SDS011;10347;51.828;6.466;2023-03-21T08:04:53;14.57;;;6.60;;
20375;SDS011;10347;51.828;6.466;2023-03-21T08:07:20;13.40;;;6.03;;
20375;SDS011;10347;51.828;6.466;2023-03-21T08:09:45;13.65;;;5.85;;
20375;SDS011;10347;51.828;6.466;2023-03-21T08:12:11;14.10;;;6.55;;
20375;SDS011;10347;51.828;6.466;2023-03-21T08:14:37;20.50;;;8.02;;
20375;SDS011;10347;51.828;6.466;2023-03-21T08:17:03;13.20;;;6.13;;
20375;SDS011;10347;51.828;6.466;2023-03-21T08:19:30;15.98;;;7.53;;
20375;SDS011;10347;51.828;6.466;2023-03-21T08:21:56;11.85;;;5.97;;
20375;SDS011;10347;51.828;6.466;2023-03-21T08:24:25;18.10;;;7.03;;
20375;SDS011;10347;51.828;6.466;2023-03-21T08:26:52;11.80;;;6.43;;
20375;SDS011;10347;51.828;6.466;2023-03-21T08:29:17;16.55;;;7.78;;
20375;SDS011;10347;51.828;6.466;2023-03-21T08:31:43;16.83;;;6.18;;
20375;SDS011;10347;51.828;6.466;2023-03-21T08:34:08;13.10;;;6.00;;
20375;SDS011;10347;51.828;6.466;2023-03-21T08:36:35;9.95;;;5.68;;
20375;SDS011;10347;51.828;6.466;2023-03-21T08:39:01;11.13;;;6.03;;
20375;SDS011;10347;51.828;6.466;2023-03-21T08:41:32;13.57;;;5.78;;
20375;SDS011;10347;51.828;6.466;2023-03-21T08:43:59;15.40;;;5.80;;
20375;SDS011;10347;51.828;6.466;2023-03-21T08:46:25;15.05;;;5.70;;
20375;SDS011;10347;51.828;6.466;2023-03-21T08:48:51;12.27;;;5.72;;
20375;SDS011;10347;51.828;6.466;2023-03-21T08:51:17;13.20;;;6.40;;
20375;SDS011;10347;51.828;6.466;2023-03-21T08:53:42;11.27;;;5.82;;
20375;SDS011;10347;51.828;6.466;2023-03-21T08:56:08;11.00;;;5.22;;
20375;SDS011;10347;51.828;6.466;2023-03-21T08:58:35;13.38;;;5.63;;
20375;SDS011;10347;51.828;6.466;2023-03-21T09:01:01;14.35;;;6.53;;
20375;SDS011;10347;51.828;6.466;2023-03-21T09:03:27;11.90;;;6.07;;
20375;SDS011;10347;51.828;6.466;2023-03-21T09:05:54;11.75;;;6.38;;
20375;SDS011;10347;51.828;6.466;2023-03-21T09:08:20;14.07;;;6.47;;
20375;SDS011;10347;51.828;6.466;2023-03-21T09:10:47;10.65;;;5.55;;
20375;SDS011;10347;51.828;6.466;2023-03-21T09:13:16;8.40;;;5.47;;
20375;SDS011;10347;51.828;6.466;2023-03-21T09:15:42;12.30;;;6.07;;
20375;SDS011;10347;51.828;6.466;2023-03-21T09:18:07;9.38;;;5.82;;
20375;SDS011;10347;51.828;6.466;2023-03-21T09:20:43;13.95;;;5.72;;
20375;SDS011;10347;51.828;6.466;2023-03-21T09:23:10;13.32;;;6.28;;
20375;SDS011;10347;51.828;6.466;2023-03-21T09:25:37;15.27;;;6.43;;
20375;SDS011;10347;51.828;6.466;2023-03-21T09:28:04;11.70;;;5.57;;
20375;SDS011;10347;51.828;6.466;2023-03-21T09:30:30;8.30;;;5.30;;
20375;SDS011;10347;51.828;6.466;2023-03-21T09:32:58;8.25;;;5.68;;
20375;SDS011;10347;51.828;6.466;2023-03-21T09:35:24;10.55;;;5.50;;
20375;SDS011;10347;51.828;6.466;2023-03-21T09:37:51;11.77;;;5.88;;
20375;SDS011;10347;51.828;6.466;2023-03-21T09:40:18;9.65;;;5.43;;
20375;SDS011;10347;51.828;6.466;2023-03-21T09:43:07;15.20;;;5.80;;
20375;SDS011;10347;51.828;6.466;2023-03-21T09:46:09;11.63;;;5.35;;
20375;SDS011;10347;51.828;6.466;2023-03-21T09:48:55;15.10;;;5.93;;
20375;SDS011;10347;51.828;6.466;2023-03-21T09:51:30;12.60;;;5.00;;
20375;SDS011;10347;51.828;6.466;2023-03-21T09:54:02;10.93;;;5.45;;
20375;SDS011;10347;51.828;6.466;2023-03-21T09:56:33;10.77;;;5.38;;
20375;SDS011;10347;51.828;6.466;2023-03-21T09:59:00;8.77;;;5.18;;
20375;SDS011;10347;51.828;6.466;2023-03-21T10:01:31;13.55;;;5.50;;
20375;SDS011;10347;51.828;6.466;2023-03-21T10:03:59;13.02;;;5.53;;
20375;SDS011;10347;51.828;6.466;2023-03-21T10:06:27;13.10;;;5.32;;
20375;SDS011;10347;51.828;6.466;2023-03-21T10:09:07;9.27;;;4.88;;
20375;SDS011;10347;51.828;6.466;2023-03-21T10:11:43;9.80;;;5.00;;
20375;SDS011;10347;51.828;6.466;2023-03-21T10:20:14;14.00;;;5.93;;
20375;SDS011;10347;51.828;6.466;2023-03-21T10:22:45;11.52;;;6.00;;
20375;SDS011;10347;51.828;6.466;2023-03-21T10:25:20;11.55;;;4.90;;
20375;SDS011;10347;51.828;6.466;2023-03-21T10:27:50;12.45;;;5.60;;
20375;SDS011;10347;51.828;6.466;2023-03-21T10:31:17;10.13;;;5.60;;
20375;SDS011;10347;51.828;6.466;2023-03-21T10:33:19;14.25;;;5.93;;
20375;SDS011;10347;51.828;6.466;2023-03-21T10:35:49;10.32;;;5.70;;
20375;SDS011;10347;51.828;6.466;2023-03-21T10:38:18;11.30;;;5.85;;
20375;SDS011;10347;51.828;6.466;2023-03-21T10:40:45;11.57;;;5.95;;
20375;SDS011;10347;51.828;6.466;2023-03-21T10:43:30;9.88;;;4.80;;
20375;SDS011;10347;51.828;6.466;2023-03-21T10:45:58;10.45;;;5.38;;
20375;SDS011;10347;51.828;6.466;2023-03-21T10:48:33;7.32;;;4.70;;
20375;SDS011;10347;51.828;6.466;2023-03-21T10:51:04;10.93;;;5.38;;
20375;SDS011;10347;51.828;6.466;2023-03-21T10:53:34;9.73;;;5.18;;
20375;SDS011;10347;51.828;6.466;2023-03-21T10:56:02;9.43;;;5.40;;
20375;SDS011;10347;51.828;6.466;2023-03-21T10:58:34;14.73;;;5.32;;
20375;SDS011;10347;51.828;6.466;2023-03-21T11:01:04;10.20;;;5.55;;
20375;SDS011;10347;51.828;6.466;2023-03-21T11:03:37;14.80;;;6.03;;
20375;SDS011;10347;51.828;6.466;2023-03-21T11:06:11;8.63;;;4.40;;
20375;SDS011;10347;51.828;6.466;2023-03-21T11:08:48;12.50;;;5.28;;
20375;SDS011;10347;51.828;6.466;2023-03-21T11:11:19;9.75;;;5.18;;
20375;SDS011;10347;51.828;6.466;2023-03-21T11:13:58;5.68;;;4.10;;
20375;SDS011;10347;51.828;6.466;2023-03-21T11:16:33;10.20;;;4.70;;
20375;SDS011;10347;51.828;6.466;2023-03-21T11:19:10;11.55;;;4.95;;
20375;SDS011;10347;51.828;6.466;2023-03-21T11:21:40;7.65;;;4.60;;
20375;SDS011;10347;51.828;6.466;2023-03-21T11:24:08;10.32;;;4.82;;
20375;SDS011;10347;51.828;6.466;2023-03-21T11:26:40;8.80;;;3.75;;
20375;SDS011;10347;51.828;6.466;2023-03-21T11:29:31;6.10;;;4.30;;
20375;SDS011;10347;51.828;6.466;2023-03-21T11:31:58;6.63;;;4.13;;
20375;SDS011;10347;51.828;6.466;2023-03-21T11:34:46;10.20;;;4.72;;
20375;SDS011;10347;51.828;6.466;2023-03-21T11:37:49;8.32;;;5.07;;
20375;SDS011;10347;51.828;6.466;2023-03-21T11:45:30;6.32;;;4.20;;
20375;SDS011;10347;51.828;6.466;2023-03-21T11:47:58;10.07;;;5.15;;
20375;SDS011;10347;51.828;6.466;2023-03-21T11:50:28;8.23;;;4.28;;
20375;SDS011;10347;51.828;6.466;2023-03-21T11:53:14;9.10;;;4.60;;
20375;SDS011;10347;51.828;6.466;2023-03-21T12:10:09;8.80;;;5.20;;
20375;SDS011;10347;51.828;6.466;2023-03-21T12:18:32;8.73;;;4.70;;
20375;SDS011;10347;51.828;6.466;2023-03-21T12:21:05;8.63;;;4.65;;
20375;SDS011;10347;51.828;6.466;2023-03-21T12:23:37;13.50;;;4.95;;
20375;SDS011;10347;51.828;6.466;2023-03-21T12:26:13;12.27;;;5.10;;
20375;SDS011;10347;51.828;6.466;2023-03-21T12:28:59;12.48;;;5.05;;
20375;SDS011;10347;51.828;6.466;2023-03-21T12:31:53;12.43;;;5.20;;
20375;SDS011;10347;51.828;6.466;2023-03-21T12:45:52;10.25;;;4.95;;
20375;SDS011;10347;51.828;6.466;2023-03-21T12:51:15;9.50;;;5.25;;
20375;SDS011;10347;51.828;6.466;2023-03-21T12:56:22;11.02;;;5.50;;
20375;SDS011;10347;51.828;6.466;2023-03-21T13:01:46;11.73;;;5.75;;
20375;SDS011;10347;51.828;6.466;2023-03-21T13:04:39;10.40;;;5.47;;
20375;SDS011;10347;51.828;6.466;2023-03-21T13:07:02;7.85;;;4.93;;
20375;SDS011;10347;51.828;6.466;2023-03-21T13:09:36;8.80;;;5.20;;
20375;SDS011;10347;51.828;6.466;2023-03-21T13:14:55;11.80;;;5.10;;
20375;SDS011;10347;51.828;6.466;2023-03-21T13:17:31;12.13;;;5.40;;
20375;SDS011;10347;51.828;6.466;2023-03-21T13:22:37;9.57;;;5.70;;
20375;SDS011;10347;51.828;6.466;2023-03-21T13:25:05;12.02;;;4.88;;
20375;SDS011;10347;51.828;6.466;2023-03-21T13:27:40;7.78;;;4.68;;
20375;SDS011;10347;51.828;6.466;2023-03-21T13:32:39;9.75;;;5.50;;
20375;SDS011;10347;51.828;6.466;2023-03-21T13:38:01;6.47;;;4.97;;
20375;SDS011;10347;51.828;6.466;2023-03-21T13:40:36;6.72;;;4.60;;
20375;SDS011;10347;51.828;6.466;2023-03-21T13:43:28;6.72;;;4.65;;
20375;SDS011;10347;51.828;6.466;2023-03-21T13:46:10;8.73;;;4.50;;
20375;SDS011;10347;51.828;6.466;2023-03-21T13:51:52;8.85;;;4.57;;
20375;SDS011;10347;51.828;6.466;2023-03-21T13:54:21;9.27;;;4.45;;
20375;SDS011;10347;51.828;6.466;2023-03-21T13:56:56;13.10;;;5.03;;
20375;SDS011;10347;51.828;6.466;2023-03-21T14:04:30;6.90;;;3.28;;
20375;SDS011;10347;51.828;6.466;2023-03-21T14:07:06;6.20;;;2.80;;
20375;SDS011;10347;51.828;6.466;2023-03-21T14:09:36;10.30;;;3.22;;
20375;SDS011;10347;51.828;6.466;2023-03-21T14:12:19;6.30;;;3.08;;
20375;SDS011;10347;51.828;6.466;2023-03-21T14:14:49;7.88;;;3.70;;
20375;SDS011;10347;51.828;6.466;2023-03-21T14:17:28;5.93;;;3.22;;
20375;SDS011;10347;51.828;6.466;2023-03-21T14:22:40;7.55;;;3.83;;
20375;SDS011;10347;51.828;6.466;2023-03-21T14:25:12;4.90;;;2.90;;
20375;SDS011;10347;51.828;6.466;2023-03-21T14:27:41;5.97;;;3.10;;
20375;SDS011;10347;51.828;6.466;2023-03-21T14:30:19;6.72;;;2.92;;
20375;SDS011;10347;51.828;6.466;2023-03-21T14:32:45;3.90;;;2.70;;
20375;SDS011;10347;51.828;6.466;2023-03-21T14:35:12;6.93;;;3.70;;
20375;SDS011;10347;51.828;6.466;2023-03-21T14:37:39;6.75;;;3.47;;
20375;SDS011;10347;51.828;6.466;2023-03-21T14:40:24;5.43;;;3.33;;
20375;SDS011;10347;51.828;6.466;2023-03-21T14:42:51;5.28;;;3.40;;
20375;SDS011;10347;51.828;6.466;2023-03-21T14:45:22;6.00;;;3.10;;
20375;SDS011;10347;51.828;6.466;2023-03-21T14:47:57;5.53;;;2.90;;
20375;SDS011;10347;51.828;6.466;2023-03-21T14:50:49;3.03;;;2.60;;
20375;SDS011;10347;51.828;6.466;2023-03-21T14:53:26;5.95;;;3.20;;
20375;SDS011;10347;51.828;6.466;2023-03-21T14:58:45;5.20;;;3.22;;
20375;SDS011;10347;51.828;6.466;2023-03-21T15:01:16;4.38;;;3.05;;
20375;SDS011;10347;51.828;6.466;2023-03-21T15:03:49;6.43;;;3.20;;
20375;SDS011;10347;51.828;6.466;2023-03-21T15:06:16;4.50;;;3.47;;
20375;SDS011;10347;51.828;6.466;2023-03-21T15:08:52;6.18;;;3.05;;
20375;SDS011;10347;51.828;6.466;2023-03-21T15:11:33;6.47;;;3.53;;
20375;SDS011;10347;51.828;6.466;2023-03-21T15:14:01;4.82;;;3.10;;
20375;SDS011;10347;51.828;6.466;2023-03-21T15:16:29;7.68;;;3.40;;
20375;SDS011;10347;51.828;6.466;2023-03-21T15:18:55;7.18;;;3.42;;
20375;SDS011;10347;51.828;6.466;2023-03-21T15:21:26;8.45;;;3.45;;
20375;SDS011;10347;51.828;6.466;2023-03-21T15:23:55;7.15;;;3.42;;
20375;SDS011;10347;51.828;6.466;2023-03-21T15:26:27;7.68;;;3.40;;
20375;SDS011;10347;51.828;6.466;2023-03-21T15:28:56;5.30;;;2.92;;
20375;SDS011;10347;51.828;6.466;2023-03-21T15:31:25;6.03;;;3.05;;
20375;SDS011;10347;51.828;6.466;2023-03-21T15:33:54;6.20;;;2.83;;
20375;SDS011;10347;51.828;6.466;2023-03-21T15:36:21;5.40;;;3.15;;
20375;SDS011;10347;51.828;6.466;2023-03-21T15:39:05;6.13;;;3.15;;
20375;SDS011;10347;51.828;6.466;2023-03-21T15:41:36;4.60;;;3.10;;
20375;SDS011;10347;51.828;6.466;2023-03-21T15:46:38;5.95;;;3.00;;
20375;SDS011;10347;51.828;6.466;2023-03-21T15:51:38;5.80;;;3.65;;
20375;SDS011;10347;51.828;6.466;2023-03-21T15:54:08;4.68;;;3.05;;
20375;SDS011;10347;51.828;6.466;2023-03-21T15:56:37;6.22;;;3.70;;
20375;SDS011;10347;51.828;6.466;2023-03-21T15:59:06;7.90;;;3.38;;
20375;SDS011;10347;51.828;6.466;2023-03-21T16:01:39;6.22;;;3.25;;
20375;SDS011;10347;51.828;6.466;2023-03-21T16:04:05;6.00;;;3.20;;
20375;SDS011;10347;51.828;6.466;2023-03-21T16:06:35;5.85;;;3.45;;
20375;SDS011;10347;51.828;6.466;2023-03-21T16:09:12;6.38;;;3.20;;
20375;SDS011;10347;51.828;6.466;2023-03-21T16:11:49;5.55;;;3.20;;
20375;SDS011;10347;51.828;6.466;2023-03-21T16:14:18;6.43;;;3.13;;
20375;SDS011;10347;51.828;6.466;2023-03-21T16:16:44;2.97;;;2.60;;
20375;SDS011;10347;51.828;6.466;2023-03-21T16:19:10;4.10;;;3.00;;
20375;SDS011;10347;51.828;6.466;2023-03-21T16:21:36;8.00;;;3.47;;
20375;SDS011;10347;51.828;6.466;2023-03-21T16:24:02;7.03;;;3.53;;
20375;SDS011;10347;51.828;6.466;2023-03-21T16:26:30;6.80;;;3.50;;
20375;SDS011;10347;51.828;6.466;2023-03-21T16:28:57;9.32;;;3.40;;
20375;SDS011;10347;51.828;6.466;2023-03-21T16:31:26;6.72;;;2.92;;
20375;SDS011;10347;51.828;6.466;2023-03-21T16:33:53;3.85;;;2.80;;
20375;SDS011;10347;51.828;6.466;2023-03-21T16:36:28;3.63;;;2.67;;
20375;SDS011;10347;51.828;6.466;2023-03-21T16:38:56;6.97;;;3.58;;
20375;SDS011;10347;51.828;6.466;2023-03-21T16:41:22;6.35;;;3.28;;
20375;SDS011;10347;51.828;6.466;2023-03-21T16:43:50;5.18;;;3.13;;
20375;SDS011;10347;51.828;6.466;2023-03-21T16:46:18;7.65;;;3.58;;